Time;durP1;ratioP1;P1;durP2;ratioP2;P2;SDS_P1;SDS_P2;PMS_P1;PMS_P2;Temp;Humidity;BMP_temperature;BMP_pressure;BME280_temperature;BME280_humidity;BME280_pressure;Samples;Min_cycle;Max_cycle;Signal;HPM_P1;HPM_P2
2022/05/08 00:02:19;;;;;;;72.73;36.67;;;13.00;99.90;;;;;;5113588;28;20171;-73
2022/05/08 00:04:45;;;;;;;61.63;35.77;;;13.00;99.90;;;;;;5113542;28;20178;-74
2022/05/08 00:07:12;;;;;;;69.30;36.70;;;12.90;99.90;;;;;;5115108;28;20257;-73
2022/05/08 00:09:37;;;;;;;55.53;34.73;;;12.90;99.90;;;;;;5117674;28;20240;-73
2022/05/08 00:12:04;;;;;;;58.60;33.27;;;12.90;99.90;;;;;;5117188;28;20618;-73
2022/05/08 00:14:29;;;;;;;54.07;32.77;;;12.90;99.90;;;;;;5117692;28;20274;-73
2022/05/08 00:16:55;;;;;;;56.93;33.03;;;12.80;99.90;;;;;;5117549;28;20316;-73
2022/05/08 00:19:21;;;;;;;58.63;33.50;;;12.80;99.90;;;;;;5117554;28;20174;-73
2022/05/08 00:21:46;;;;;;;55.90;33.57;;;12.80;99.90;;;;;;5117464;28;20240;-73
2022/05/08 00:24:12;;;;;;;57.27;33.73;;;12.90;99.90;;;;;;5117464;28;20171;-73
2022/05/08 00:26:38;;;;;;;66.93;34.73;;;13.00;99.90;;;;;;5117062;28;20182;-73
2022/05/08 00:29:03;;;;;;;67.10;34.87;;;13.00;99.90;;;;;;5117268;28;20171;-73
2022/05/08 00:31:29;;;;;;;62.50;33.60;;;13.00;99.90;;;;;;5117339;28;20175;-73
2022/05/08 00:33:55;;;;;;;51.70;30.80;;;13.10;99.90;;;;;;5117174;28;20171;-73
2022/05/08 00:36:21;;;;;;;49.73;29.67;;;13.10;99.90;;;;;;5116998;28;20242;-73
2022/05/08 00:38:46;;;;;;;50.47;30.03;;;13.10;99.90;;;;;;5117103;28;20163;-73
2022/05/08 00:41:12;;;;;;;48.90;28.73;;;13.20;99.90;;;;;;5116829;28;20183;-73
2022/05/08 00:43:39;;;;;;;47.60;29.27;;;13.40;99.90;;;;;;5116978;28;20174;-73
2022/05/08 00:46:09;;;;;;;43.63;27.17;;;13.50;99.90;;;;;;5116975;28;20254;-71
2022/05/08 00:48:35;;;;;;;42.90;25.97;;;13.50;99.90;;;;;;5116884;28;20171;-71
2022/05/08 00:51:04;;;;;;;38.17;23.97;;;13.50;99.90;;;;;;5116945;28;20498;-71
2022/05/08 00:53:51;;;;;;;33.93;22.93;;;13.50;99.90;;;;;;5116542;28;20274;-73
2022/05/08 00:56:17;;;;;;;28.77;20.33;;;13.40;99.90;;;;;;5116739;28;20725;-73
2022/05/08 00:58:44;;;;;;;29.07;20.07;;;13.40;99.90;;;;;;5116598;28;20222;-73
2022/05/08 01:01:10;;;;;;;26.67;18.27;;;13.30;99.90;;;;;;5116467;28;20202;-73
2022/05/08 01:03:38;;;;;;;25.97;17.73;;;13.40;99.90;;;;;;5116812;28;20707;-73
2022/05/08 01:06:06;;;;;;;24.37;17.03;;;13.40;99.90;;;;;;5116663;28;20619;-73
2022/05/08 01:08:34;;;;;;;25.87;17.60;;;13.40;99.90;;;;;;5115967;28;20254;-73
2022/05/08 01:11:04;;;;;;;24.97;16.43;;;13.40;99.90;;;;;;5116434;28;20171;-73
2022/05/08 01:13:30;;;;;;;22.80;15.50;;;13.40;99.90;;;;;;5116410;28;20174;-73
2022/05/08 01:15:56;;;;;;;22.17;15.73;;;13.40;99.90;;;;;;5116347;28;20175;-73
2022/05/08 01:18:22;;;;;;;22.57;16.07;;;13.40;99.90;;;;;;5115910;28;20220;-73
2022/05/08 01:20:48;;;;;;;18.17;14.03;;;13.40;99.90;;;;;;5116359;28;20166;-73
2022/05/08 01:23:15;;;;;;;21.80;14.40;;;13.30;99.90;;;;;;5116041;28;20171;-73
2022/05/08 01:25:52;;;;;;;25.13;14.10;;;13.30;99.90;;;;;;5116052;28;20270;-73
2022/05/08 01:28:19;;;;;;;19.00;14.03;;;13.30;99.90;;;;;;5116058;28;20550;-73
2022/05/08 01:30:49;;;;;;;17.03;13.60;;;13.30;99.90;;;;;;5116155;28;20255;-73
2022/05/08 01:33:15;;;;;;;18.63;13.53;;;13.20;99.90;;;;;;5116433;28;20179;-73
2022/05/08 01:35:42;;;;;;;20.10;13.33;;;13.30;99.90;;;;;;5116038;28;20694;-73
2022/05/08 01:38:09;;;;;;;16.83;13.70;;;13.30;99.90;;;;;;5115457;28;20215;-73
2022/05/08 01:40:35;;;;;;;17.03;13.33;;;13.20;99.90;;;;;;5115935;28;20174;-73
2022/05/08 01:43:01;;;;;;;16.97;14.03;;;13.10;99.90;;;;;;5097702;28;20179;-73
2022/05/08 01:45:27;;;;;;;19.77;14.57;;;13.10;99.90;;;;;;5116194;28;20633;-73
2022/05/08 01:50:38;;;;;;;21.50;12.80;;;12.90;99.90;;;;;;5116087;28;20236;-72
2022/05/08 01:53:04;;;;;;;18.77;11.83;;;12.70;99.90;;;;;;5115857;28;20235;-72
2022/05/08 01:55:30;;;;;;;15.07;11.63;;;12.60;99.90;;;;;;5115672;28;20178;-72
2022/05/08 01:57:56;;;;;;;15.70;12.53;;;12.50;99.90;;;;;;5115348;28;20627;-73
2022/05/08 02:00:23;;;;;;;14.40;11.43;;;12.40;99.90;;;;;;5097278;28;20648;-72
2022/05/08 02:02:49;;;;;;;16.00;11.17;;;12.40;99.90;;;;;;5115629;28;20169;-72
2022/05/08 02:05:16;;;;;;;15.60;11.23;;;12.40;99.90;;;;;;5115620;28;20167;-72
2022/05/08 02:07:47;;;;;;;14.10;10.80;;;12.40;99.90;;;;;;5114930;28;20167;-72
2022/05/08 02:10:14;;;;;;;18.80;10.97;;;12.40;99.90;;;;;;5115639;28;20206;-72
2022/05/08 02:12:41;;;;;;;13.10;10.17;;;12.40;99.90;;;;;;5115263;28;20237;-72
2022/05/08 02:15:08;;;;;;;12.13;10.67;;;12.30;99.90;;;;;;5115314;28;20164;-72
2022/05/08 02:17:35;;;;;;;14.40;10.20;;;12.30;99.90;;;;;;5115170;28;20203;-72
2022/05/08 02:20:01;;;;;;;14.40;9.87;;;12.30;99.90;;;;;;5115208;28;20224;-72
2022/05/08 02:22:26;;;;;;;16.43;10.70;;;12.30;99.90;;;;;;5114577;28;20219;-72
2022/05/08 02:24:52;;;;;;;11.43;9.43;;;12.30;99.90;;;;;;5114984;28;20274;-72
2022/05/08 02:27:18;;;;;;;13.73;9.10;;;12.20;99.90;;;;;;5115100;28;20176;-72
2022/05/08 02:29:50;;;;;;;13.03;9.87;;;12.20;99.90;;;;;;5114109;28;20171;-72
2022/05/08 02:32:16;;;;;;;10.17;8.67;;;12.20;99.90;;;;;;5115024;28;20175;-72
2022/05/08 02:34:42;;;;;;;13.13;9.27;;;12.00;99.90;;;;;;5114706;28;20182;-72
2022/05/08 02:37:08;;;;;;;13.93;9.73;;;12.10;99.90;;;;;;5114243;28;20206;-72
2022/05/08 02:39:34;;;;;;;11.30;9.00;;;12.10;99.90;;;;;;5114823;28;20228;-72
2022/05/08 02:42:00;;;;;;;10.30;8.93;;;12.10;99.90;;;;;;5114821;28;20682;-72
2022/05/08 02:44:25;;;;;;;11.63;8.73;;;12.00;99.90;;;;;;5114858;28;20167;-72
2022/05/08 02:46:51;;;;;;;13.40;8.57;;;12.00;99.90;;;;;;5114522;28;20171;-72
2022/05/08 02:49:17;;;;;;;9.83;7.93;;;12.00;99.90;;;;;;5114393;28;20175;-72
2022/05/08 02:51:42;;;;;;;13.93;8.80;;;12.10;99.90;;;;;;5114252;28;20345;-72
2022/05/08 02:54:08;;;;;;;11.37;8.53;;;12.10;99.90;;;;;;5114451;28;20168;-72
2022/05/08 02:59:18;;;;;;;9.63;7.43;;;12.00;99.20;;;;;;5114391;28;20575;-72
2022/05/08 03:01:43;;;;;;;11.20;6.97;;;12.10;97.80;;;;;;5096381;28;20175;-72
2022/05/08 03:04:09;;;;;;;10.13;7.40;;;12.00;96.30;;;;;;5114093;28;20167;-72
2022/05/08 03:06:35;;;;;;;10.80;7.00;;;12.10;96.20;;;;;;5114225;28;20175;-72
2022/05/08 03:09:00;;;;;;;9.13;7.40;;;12.20;95.90;;;;;;5114204;28;20607;-72
2022/05/08 03:11:26;;;;;;;9.77;7.37;;;12.20;94.20;;;;;;5113719;28;20172;-72
2022/05/08 03:13:59;;;;;;;10.53;7.00;;;12.20;93.40;;;;;;5114448;28;20324;-71
2022/05/08 03:16:28;;;;;;;8.67;6.40;;;12.20;93.90;;;;;;5113932;28;20210;-72
2022/05/08 03:18:55;;;;;;;10.17;6.83;;;12.20;92.00;;;;;;5113861;28;20175;-72
2022/05/08 03:21:22;;;;;;;9.67;7.73;;;12.20;93.20;;;;;;5114013;28;20265;-72
2022/05/08 03:23:48;;;;;;;9.60;7.37;;;12.20;93.80;;;;;;5114079;28;20220;-72
2022/05/08 03:26:14;;;;;;;10.07;7.50;;;12.20;93.00;;;;;;5114094;28;20238;-72
2022/05/08 03:28:42;;;;;;;11.43;7.83;;;12.20;92.10;;;;;;5113754;28;20253;-72
2022/05/08 03:31:09;;;;;;;15.27;7.70;;;12.30;92.20;;;;;;5113759;28;20171;-72
2022/05/08 03:33:36;;;;;;;9.57;7.47;;;12.30;90.70;;;;;;5113600;28;20175;-72
2022/05/08 03:36:03;;;;;;;11.33;7.50;;;12.40;89.60;;;;;;5095487;28;20174;-72
2022/05/08 03:38:28;;;;;;;12.50;7.37;;;12.40;90.80;;;;;;5113863;28;20207;-72
2022/05/08 03:40:54;;;;;;;11.97;7.80;;;12.50;91.30;;;;;;5113721;28;20167;-72
2022/05/08 03:43:21;;;;;;;12.50;7.63;;;12.50;88.20;;;;;;5113770;28;20171;-71
2022/05/08 03:45:49;;;;;;;12.87;7.27;;;12.60;83.50;;;;;;5113230;28;20199;-72
2022/05/08 03:48:15;;;;;;;8.57;7.47;;;12.60;81.80;;;;;;5095161;28;20175;-71
2022/05/08 03:50:41;;;;;;;11.03;7.33;;;12.60;80.10;;;;;;5113474;28;20645;-71
2022/05/08 03:53:07;;;;;;;11.67;7.33;;;12.60;77.80;;;;;;5113440;28;20167;-71
2022/05/08 03:55:32;;;;;;;9.60;7.30;;;12.50;81.00;;;;;;5113605;28;20187;-72
2022/05/08 03:57:58;;;;;;;11.73;7.83;;;12.50;84.50;;;;;;5113031;28;20309;-72
2022/05/08 04:00:24;;;;;;;11.67;8.47;;;12.40;80.20;;;;;;5113392;28;20179;-72
2022/05/08 04:02:49;;;;;;;13.40;8.80;;;12.30;80.20;;;;;;5113065;28;20186;-71
2022/05/08 04:05:16;;;;;;;10.87;8.77;;;12.20;84.30;;;;;;5113439;28;20167;-72
2022/05/08 04:07:41;;;;;;;12.63;8.30;;;12.30;86.30;;;;;;5113431;28;20623;-72
2022/05/08 04:10:08;;;;;;;14.97;8.30;;;12.30;86.70;;;;;;5113133;28;20183;-72
2022/05/08 04:12:34;;;;;;;10.53;9.17;;;12.30;86.60;;;;;;5113139;28;20178;-72
2022/05/08 04:15:00;;;;;;;12.10;8.17;;;12.30;86.70;;;;;;5113002;28;20199;-71
2022/05/08 04:17:28;;;;;;;11.43;8.17;;;12.30;88.80;;;;;;5113044;28;20288;-72
2022/05/08 04:19:55;;;;;;;13.77;8.67;;;12.40;90.80;;;;;;5113166;28;20205;-71
2022/05/08 04:25:07;;;;;;;13.50;8.83;;;12.60;81.40;;;;;;5113664;28;20240;-71
2022/05/08 04:27:35;;;;;;;15.13;8.83;;;12.60;73.80;;;;;;5113177;28;20611;-71
2022/05/08 04:30:01;;;;;;;16.07;8.80;;;12.50;77.20;;;;;;5113094;28;20167;-72
2022/05/08 04:32:27;;;;;;;9.93;8.27;;;12.60;78.10;;;;;;5112994;28;20174;-72
2022/05/08 04:34:52;;;;;;;13.83;8.53;;;12.70;74.20;;;;;;5094933;28;20171;-72
2022/05/08 04:37:18;;;;;;;12.43;9.23;;;12.70;70.50;;;;;;5112777;28;20574;-71
2022/05/08 04:39:43;;;;;;;11.57;8.70;;;12.60;73.90;;;;;;5113169;28;20167;-71
2022/05/08 04:42:09;;;;;;;15.63;8.93;;;12.60;72.70;;;;;;5113210;28;20579;-71
2022/05/08 04:44:35;;;;;;;16.70;9.27;;;12.60;70.20;;;;;;5112960;28;20175;-71
2022/05/08 04:47:00;;;;;;;10.70;8.33;;;12.60;68.00;;;;;;5112370;28;20181;-72
2022/05/08 04:49:27;;;;;;;12.10;9.73;;;12.60;73.80;;;;;;5112679;28;20164;-72
2022/05/08 04:51:53;;;;;;;10.73;9.60;;;12.60;69.30;;;;;;5112576;28;20195;-71
2022/05/08 04:54:18;;;;;;;13.27;9.57;;;12.50;70.10;;;;;;5097538;28;20175;-71
2022/05/08 04:56:44;;;;;;;12.27;9.80;;;12.50;72.10;;;;;;5098332;28;20207;-72
2022/05/08 04:59:10;;;;;;;13.80;10.17;;;12.50;73.30;;;;;;5116210;28;20219;-71
2022/05/08 05:01:35;;;;;;;14.27;10.37;;;12.40;73.30;;;;;;5116155;28;20194;-72
2022/05/08 05:04:01;;;;;;;14.90;10.23;;;12.40;72.10;;;;;;5116431;28;20618;-72
2022/05/08 05:06:27;;;;;;;12.07;9.83;;;12.50;67.90;;;;;;5115947;28;20166;-72
2022/05/08 05:08:52;;;;;;;13.93;10.17;;;12.40;68.80;;;;;;5115867;28;20217;-72
2022/05/08 05:11:19;;;;;;;14.60;10.23;;;12.30;70.30;;;;;;5097668;28;20258;-72
2022/05/08 05:13:44;;;;;;;13.00;10.07;;;12.30;73.50;;;;;;5115631;28;20254;-72
2022/05/08 05:16:10;;;;;;;16.67;11.07;;;12.30;69.80;;;;;;5097560;28;20254;-73
2022/05/08 05:18:35;;;;;;;14.03;10.77;;;12.30;67.60;;;;;;5116192;28;20664;-73
2022/05/08 05:21:01;;;;;;;15.63;9.33;;;12.40;67.50;;;;;;5116199;28;20194;-71
2022/05/08 05:23:27;;;;;;;12.93;10.10;;;12.40;63.10;;;;;;5116077;28;20163;-73
2022/05/08 05:25:52;;;;;;;12.60;9.97;;;12.40;68.30;;;;;;5115902;28;20191;-72
2022/05/08 05:28:18;;;;;;;17.57;10.70;;;12.60;65.20;;;;;;5116059;28;20242;-71
2022/05/08 05:30:44;;;;;;;11.20;10.07;;;12.70;49.40;;;;;;5115693;28;20176;-73
2022/05/08 05:33:15;;;;;;;14.30;9.57;;;12.90;45.90;;;;;;5116018;28;20171;-71
2022/05/08 05:35:44;;;;;;;17.87;10.30;;;12.90;32.00;;;;;;5115847;28;20192;-71
2022/05/08 05:38:09;;;;;;;15.33;9.57;;;12.90;33.50;;;;;;5097315;28;20271;-71
2022/05/08 05:40:35;;;;;;;14.17;10.30;;;12.90;36.70;;;;;;5115808;28;20258;-73
2022/05/08 05:43:00;;;;;;;12.23;10.80;;;12.90;33.50;;;;;;5097170;28;20175;-72
2022/05/08 05:45:26;;;;;;;15.67;10.13;;;12.80;39.70;;;;;;5115510;28;20172;-72
2022/05/08 05:47:57;;;;;;;17.07;10.33;;;12.70;41.60;;;;;;5115639;28;20622;-72
2022/05/08 05:50:24;;;;;;;14.07;10.60;;;12.80;42.10;;;;;;5115690;28;20545;-72
2022/05/08 05:52:51;;;;;;;15.83;10.13;;;12.70;36.90;;;;;;5115519;28;20172;-72
2022/05/08 05:55:17;;;;;;;13.40;9.93;;;12.60;43.90;;;;;;5115530;28;20194;-72
2022/05/08 05:57:43;;;;;;;12.53;9.57;;;12.60;45.90;;;;;;5114199;28;20322;-71
2022/05/08 06:00:13;;;;;;;18.70;10.90;;;12.50;47.30;;;;;;5115028;28;20337;-73
2022/05/08 06:02:42;;;;;;;13.77;9.83;;;12.50;53.00;;;;;;5115312;28;20179;-73
2022/05/08 06:05:08;;;;;;;13.13;9.83;;;12.60;45.50;;;;;;5114034;28;20609;-71
2022/05/08 06:07:35;;;;;;;11.60;9.33;;;12.60;45.70;;;;;;5115063;28;20174;-72
2022/05/08 06:10:02;;;;;;;11.50;9.67;;;12.70;45.20;;;;;;5114907;28;20228;-72
2022/05/08 06:12:28;;;;;;;14.73;10.63;;;12.90;39.90;;;;;;5114433;28;20167;-71
2022/05/08 06:14:54;;;;;;;11.77;10.00;;;13.00;30.00;;;;;;5114990;28;20258;-71
2022/05/08 06:17:19;;;;;;;13.10;9.37;;;13.10;24.50;;;;;;5114887;28;20203;-72
2022/05/08 06:19:45;;;;;;;13.40;9.73;;;13.40;4.90;;;;;;5114688;28;20191;-71
2022/05/08 06:22:11;;;;;;;13.23;9.47;;;13.80;1.00;;;;;;5114680;28;20220;-71
2022/05/08 06:24:38;;;;;;;14.43;8.93;;;14.70;1.00;;;;;;5114171;28;20234;-73
2022/05/08 06:27:04;;;;;;;12.07;8.87;;;15.60;1.00;;;;;;5114605;28;20178;-74
2022/05/08 06:29:30;;;;;;;11.60;8.87;;;16.30;1.00;;;;;;5114791;28;20175;-74
2022/05/08 06:31:56;;;;;;;11.77;8.70;;;16.20;1.00;;;;;;5115080;28;20309;-73
2022/05/08 06:34:22;;;;;;;9.53;8.07;;;16.00;1.00;;;;;;5114946;28;20238;-73
2022/05/08 06:36:47;;;;;;;11.60;8.87;;;15.90;1.00;;;;;;5114250;28;20207;-73
2022/05/08 06:39:13;;;;;;;13.40;9.53;;;15.40;1.00;;;;;;5114251;28;20172;-73
2022/05/08 06:41:39;;;;;;;13.43;9.10;;;15.30;1.00;;;;;;5114259;28;20190;-72
2022/05/08 06:44:05;;;;;;;11.63;9.23;;;14.70;1.00;;;;;;5114510;28;20212;-73
2022/05/08 06:46:32;;;;;;;13.97;9.57;;;14.20;1.00;;;;;;5114284;28;20182;-72
2022/05/08 06:49:02;;;;;;;10.83;9.33;;;13.80;1.00;;;;;;5113723;28;20224;-72
2022/05/08 06:51:28;;;;;;;16.73;9.23;;;13.60;1.00;;;;;;5114298;28;20179;-72
2022/05/08 06:53:53;;;;;;;12.23;8.90;;;13.60;1.00;;;;;;5114247;28;20171;-71
2022/05/08 06:56:19;;;;;;;13.17;10.13;;;13.70;1.00;;;;;;5113945;28;20646;-72
2022/05/08 07:01:34;;;;;;;11.77;10.13;;;14.30;1.00;;;;;;5113817;28;20174;-71
2022/05/08 07:04:03;;;;;;;13.93;9.13;;;15.00;1.00;;;;;;5114149;28;20702;-71
2022/05/08 07:06:29;;;;;;;11.23;9.60;;;15.60;1.00;;;;;;5113619;28;20168;-71
2022/05/08 07:08:55;;;;;;;10.20;8.73;;;15.90;1.00;;;;;;5113814;28;20190;-71
2022/05/08 07:11:21;;;;;;;13.97;9.53;;;15.80;1.00;;;;;;5113243;28;20171;-71
2022/05/08 07:13:47;;;;;;;11.80;9.07;;;15.50;1.00;;;;;;5113561;28;20255;-71
2022/05/08 07:16:13;;;;;;;12.03;9.30;;;15.80;1.00;;;;;;5113536;28;20174;-72
2022/05/08 07:18:39;;;;;;;11.30;9.27;;;16.00;1.00;;;;;;5113657;28;20265;-72
2022/05/08 07:21:05;;;;;;;12.67;9.37;;;15.90;1.00;;;;;;5113787;28;20198;-73
2022/05/08 07:23:32;;;;;;;12.97;8.97;;;16.80;99.90;;;;;;5113712;28;20189;-74
2022/05/08 07:25:58;;;;;;;10.40;8.53;;;18.00;1.00;;;;;;5113317;28;20198;-74
2022/05/08 07:28:24;;;;;;;11.93;8.60;;;18.70;99.90;;;;;;5113012;28;20216;-74
2022/05/08 07:30:49;;;;;;;11.15;7.97;;;19.10;99.90;;;;;;5113208;28;20254;-74
2022/05/08 07:33:16;;;;;;;10.67;9.43;;;19.20;1.00;;;;;;5113246;28;20629;-74
2022/05/08 07:38:30;;;;;;;11.90;10.27;;;17.00;99.90;;;;;;5113802;28;20225;-73
2022/05/08 07:40:57;;;;;;;14.83;10.07;;;16.60;54.90;;;;;;5113099;28;20186;-73
2022/05/08 07:43:23;;;;;;;13.33;9.00;;;16.30;99.90;;;;;;5113168;28;20254;-73
2022/05/08 07:45:49;;;;;;;14.37;10.20;;;16.00;99.90;;;;;;5112644;27;20176;-73
2022/05/08 07:48:16;;;;;;;16.93;9.27;;;16.30;99.90;;;;;;5113180;28;20175;-72
2022/05/08 07:50:42;;;;;;;11.97;8.83;;;16.80;99.90;;;;;;5112478;28;20256;-73
2022/05/08 07:53:08;;;;;;;12.27;9.20;;;17.40;1.00;;;;;;5113319;28;20642;-75
2022/05/08 07:55:34;;;;;;;12.53;8.93;;;17.60;99.90;;;;;;5112595;28;20167;-74
2022/05/08 07:58:00;;;;;;;14.33;9.33;;;17.20;99.90;;;;;;5112037;28;20226;-74
2022/05/08 08:00:26;;;;;;;14.00;8.40;;;17.30;1.00;;;;;;5112959;28;20179;-74
2022/05/08 08:02:52;;;;;;;16.10;9.33;;;17.10;99.90;;;;;;5113220;28;20512;-73
2022/05/08 08:05:18;;;;;;;12.97;9.00;;;16.90;58.40;;;;;;5113392;28;20533;-74
2022/05/08 08:07:43;;;;;;;11.83;7.97;;;16.90;1.00;;;;;;5112475;28;20175;-74
2022/05/08 08:10:09;;;;;;;13.20;9.60;;;16.50;99.90;;;;;;5112428;28;20191;-74
2022/05/08 08:12:36;;;;;;;15.47;9.23;;;16.60;1.00;;;;;;5113357;28;20529;-75
2022/05/08 08:15:02;;;;;;;14.13;9.27;;;17.40;1.00;;;;;;5112932;28;20171;-75
2022/05/08 08:17:28;;;;;;;13.70;9.03;;;17.60;1.00;;;;;;5112310;28;20227;-74
2022/05/08 08:19:54;;;;;;;19.90;9.07;;;17.60;1.00;;;;;;5112829;28;20651;-74
2022/05/08 08:22:21;;;;;;;10.80;8.27;;;18.50;1.00;;;;;;5094175;28;20186;-74
2022/05/08 08:24:47;;;;;;;11.00;7.82;;;20.00;99.90;;;;;;5112353;28;20658;-75
2022/05/08 08:27:13;;;;;;;13.02;8.07;;;20.90;1.00;;;;;;5112947;28;20178;-76
2022/05/08 08:29:39;;;;;;;13.55;8.57;;;22.10;1.00;;;;;;5116560;28;20163;-77
2022/05/08 08:32:05;;;;;;;12.65;8.55;;;22.70;99.90;;;;;;5117206;28;20197;-76
2022/05/08 08:34:31;;;;;;;13.27;8.32;;;21.90;99.90;;;;;;5116849;28;20523;-77
2022/05/08 08:36:57;;;;;;;13.60;8.43;;;21.40;99.90;;;;;;5116480;28;20199;-79
2022/05/08 08:39:22;;;;;;;13.75;8.63;;;22.40;99.90;;;;;;5116269;28;20691;-80
2022/05/08 08:41:58;;;;;;;12.85;8.82;;;23.40;99.90;;;;;;5116875;28;20646;-80
2022/05/08 08:49:58;;;;;;;11.00;7.60;;;22.20;99.90;;;;;;5118031;28;20213;-80
2022/05/08 08:52:26;;;;;;;12.25;8.13;;;23.80;99.90;;;;;;5116743;28;20217;-80
2022/05/08 08:54:52;;;;;;;14.27;8.38;;;24.50;99.90;;;;;;5122925;28;20210;-78
2022/05/08 08:57:18;;;;;;;11.32;8.05;;;23.30;99.90;;;;;;5116048;28;20238;-80
2022/05/08 08:59:43;;;;;;;12.05;8.30;;;22.00;99.90;;;;;;5115808;28;20215;-79
2022/05/08 09:02:20;;;;;;;10.65;7.20;;;21.30;99.90;;;;;;5098471;28;20250;-80
2022/05/08 09:04:51;;;;;;;9.45;6.20;;;22.10;99.90;;;;;;5121657;28;20159;-81
2022/05/08 09:07:40;;;;;;;9.68;7.05;;;22.80;99.90;;;;;;5126628;28;20171;-79
2022/05/08 09:10:10;;;;;;;9.43;6.32;;;22.50;99.90;;;;;;5127113;28;20175;-80
2022/05/08 09:12:36;;;;;;;8.43;5.82;;;21.90;99.90;;;;;;5122998;28;20185;-81
2022/05/08 09:15:20;;;;;;;12.55;6.25;;;23.00;99.90;;;;;;5118749;28;20524;-80
2022/05/08 09:17:47;;;;;;;8.77;5.55;;;22.20;99.90;;;;;;5117090;28;20685;-80
2022/05/08 09:20:43;;;;;;;10.93;5.28;;;22.50;99.90;;;;;;5116500;28;20652;-81
2022/05/08 09:23:14;;;;;;;9.55;5.30;;;22.30;99.90;;;;;;4994546;28;20225;-80
2022/05/08 09:26:02;;;;;;;7.97;4.40;;;22.80;99.90;;;;;;4995048;28;20210;-79
2022/05/08 09:28:37;;;;;;;9.50;4.82;;;23.50;99.90;;;;;;4995184;28;20215;-79
2022/05/08 09:31:21;;;;;;;6.78;4.50;;;23.40;99.90;;;;;;5002518;28;20257;-79
2022/05/08 09:33:49;;;;;;;7.95;4.82;;;23.90;99.90;;;;;;4994264;28;20710;-79
2022/05/08 09:36:22;;;;;;;8.38;4.65;;;22.60;99.90;;;;;;4995718;28;20262;-79
2022/05/08 09:38:55;;;;;;;5.43;3.50;;;23.10;99.90;;;;;;4999214;28;20230;-79
2022/05/08 09:41:23;;;;;;;6.22;4.40;;;23.20;99.90;;;;;;4993812;28;20176;-78
2022/05/08 09:43:51;;;;;;;8.85;3.50;;;23.00;99.90;;;;;;4994209;28;20186;-80
2022/05/08 09:46:17;;;;;;;6.43;3.63;;;23.80;99.90;;;;;;4993447;28;20249;-78
2022/05/08 09:48:43;;;;;;;4.80;3.78;;;24.10;99.90;;;;;;4997665;28;20256;-78
2022/05/08 09:51:10;;;;;;;6.88;3.88;;;24.70;99.90;;;;;;5002349;28;20687;-79
2022/05/08 09:53:38;;;;;;;8.55;3.85;;;25.80;99.90;;;;;;4981230;28;20554;-79
2022/05/08 09:56:06;;;;;;;8.00;4.30;;;24.00;99.90;;;;;;4994408;28;20266;-81
2022/05/08 09:58:32;;;;;;;6.22;3.78;;;23.30;99.90;;;;;;5012141;28;20238;-79
2022/05/08 10:00:58;;;;;;;6.38;4.00;;;24.20;99.90;;;;;;5127711;28;20174;-80
2022/05/08 10:03:25;;;;;;;5.53;3.50;;;25.60;99.90;;;;;;5126401;28;20171;-79
2022/05/08 10:05:51;;;;;;;7.57;4.00;;;25.00;99.90;;;;;;5115822;28;20232;-80
2022/05/08 10:08:20;;;;;;;5.47;2.70;;;23.40;99.90;;;;;;5115556;28;20548;-80
2022/05/08 10:13:58;;;;;;;3.80;2.75;;;22.60;99.90;;;;;;5115061;28;20193;-80
2022/05/08 10:16:42;;;;;;;8.77;3.63;;;22.40;99.90;;;;;;5114402;28;20163;-79
2022/05/08 10:19:23;;;;;;;6.00;3.25;;;22.50;99.90;;;;;;5117631;28;20182;-80
2022/05/08 10:21:57;;;;;;;7.32;3.20;;;23.00;99.90;;;;;;5118315;28;20191;-79
2022/05/08 10:24:53;;;;;;;10.27;4.15;;;24.30;99.90;;;;;;5114443;28;20194;-79
2022/05/08 10:27:20;;;;;;;9.00;3.50;;;23.90;99.90;;;;;;5114962;28;20175;-79
2022/05/08 10:29:52;;;;;;;5.72;2.90;;;23.60;99.90;;;;;;5114446;28;20159;-79
2022/05/08 10:32:33;;;;;;;7.90;3.33;;;22.50;99.90;;;;;;5114599;28;20167;-79
2022/05/08 10:35:16;;;;;;;8.15;3.50;;;21.20;99.90;;;;;;5114287;28;20175;-79
2022/05/08 10:37:51;;;;;;;10.55;4.32;;;22.40;99.90;;;;;;5114445;28;20289;-79
2022/05/08 10:40:22;;;;;;;5.85;3.70;;;22.30;99.90;;;;;;5114322;28;20197;-77
2022/05/08 10:43:00;;;;;;;8.98;4.28;;;21.80;99.90;;;;;;5095776;28;20171;-78
2022/05/08 10:45:36;;;;;;;6.70;4.10;;;22.70;99.90;;;;;;5113345;28;20201;-78
2022/05/08 10:48:13;;;;;;;8.05;3.20;;;23.80;99.90;;;;;;5113610;28;20699;-79
2022/05/08 10:50:41;;;;;;;6.68;2.95;;;23.90;99.90;;;;;;5113481;28;20178;-78
2022/05/08 10:53:19;;;;;;;9.75;3.45;;;23.00;99.90;;;;;;5113784;28;20167;-78
2022/05/08 10:55:44;;;;;;;5.07;3.45;;;22.70;99.90;;;;;;5113903;28;20182;-79
2022/05/08 10:58:10;;;;;;;8.27;3.42;;;22.80;99.90;;;;;;5113296;28;20698;-78
2022/05/08 11:00:36;;;;;;;8.70;3.40;;;22.10;99.90;;;;;;5095622;28;20178;-78
2022/05/08 11:03:01;;;;;;;6.43;3.35;;;21.90;99.90;;;;;;5113388;28;20566;-78
2022/05/08 11:05:27;;;;;;;8.25;3.55;;;22.30;99.90;;;;;;5113181;28;20569;-77
2022/05/08 11:08:01;;;;;;;7.20;3.70;;;22.50;99.90;;;;;;5112213;28;20197;-77
2022/05/08 11:10:30;;;;;;;4.18;2.80;;;23.30;99.90;;;;;;5113283;28;20171;-77
2022/05/08 11:13:20;;;;;;;8.48;3.40;;;22.60;99.90;;;;;;5113483;28;20210;-77
2022/05/08 11:15:48;;;;;;;4.65;2.83;;;22.10;99.90;;;;;;5113243;28;20168;-77
2022/05/08 11:18:20;;;;;;;7.47;3.67;;;21.70;99.90;;;;;;5112429;28;20207;-77
2022/05/08 11:20:50;;;;;;;4.63;2.55;;;21.30;99.90;;;;;;5113248;28;20630;-77
2022/05/08 11:23:21;;;;;;;5.15;2.80;;;21.20;99.90;;;;;;5113140;28;20220;-76
2022/05/08 11:25:48;;;;;;;6.28;3.25;;;22.40;99.90;;;;;;5113028;28;20184;-77
2022/05/08 11:28:15;;;;;;;9.38;2.70;;;23.60;99.90;;;;;;5113119;28;20186;-75
2022/05/08 11:30:41;;;;;;;5.22;2.42;;;23.80;99.90;;;;;;5112889;28;20159;-76
2022/05/08 11:36:06;;;;;;;6.07;2.63;;;22.70;99.90;;;;;;5113423;28;20633;-75
2022/05/08 11:38:37;;;;;;;7.55;3.13;;;21.60;99.90;;;;;;5113163;28;20260;-75
2022/05/08 11:41:05;;;;;;;5.28;2.70;;;21.00;99.90;;;;;;5113068;28;20163;-75
2022/05/08 11:43:41;;;;;;;7.18;2.72;;;20.70;99.90;;;;;;5113179;28;20191;-76
2022/05/08 11:46:07;;;;;;;6.97;3.13;;;21.00;99.90;;;;;;5112261;28;20165;-77
2022/05/08 11:48:40;;;;;;;3.80;2.70;;;21.60;99.90;;;;;;5112738;28;20179;-76
2022/05/08 11:51:13;;;;;;;5.90;2.50;;;22.20;99.90;;;;;;5112622;28;20186;-75
2022/05/08 11:53:52;;;;;;;6.65;2.72;;;21.80;99.90;;;;;;5112904;28;20167;-75
2022/05/08 11:56:24;;;;;;;5.53;2.30;;;21.20;99.90;;;;;;5113212;28;20189;-76
2022/05/08 11:58:51;;;;;;;6.93;2.55;;;21.10;99.90;;;;;;5112775;28;20694;-75
2022/05/08 12:01:29;;;;;;;3.35;2.08;;;20.80;99.90;;;;;;5111939;28;20167;-76
2022/05/08 12:03:57;;;;;;;6.53;2.53;;;20.90;99.90;;;;;;5117224;28;20653;-75
2022/05/08 12:06:23;;;;;;;13.07;3.25;;;21.00;99.90;;;;;;5117156;28;20224;-75
2022/05/08 12:08:50;;;;;;;5.00;2.83;;;21.00;99.90;;;;;;5116748;28;20181;-74
2022/05/08 12:11:27;;;;;;;6.05;2.38;;;20.80;99.90;;;;;;5116662;28;20160;-74
2022/05/08 12:14:07;;;;;;;4.15;2.33;;;20.80;99.90;;;;;;5117145;28;20174;-74
2022/05/08 12:16:34;;;;;;;5.60;2.30;;;20.40;99.90;;;;;;5116333;28;20198;-75
2022/05/08 12:19:15;;;;;;;3.85;2.17;;;20.30;99.90;;;;;;5116791;28;20610;-74
2022/05/08 12:21:48;;;;;;;3.72;1.95;;;20.30;99.90;;;;;;5116577;28;20168;-73
2022/05/08 12:24:17;;;;;;;4.88;2.05;;;20.40;99.90;;;;;;5116772;28;20657;-74
2022/05/08 12:26:43;;;;;;;3.45;1.80;;;20.40;99.90;;;;;;5116393;28;20250;-74
2022/05/08 12:29:22;;;;;;;5.25;2.33;;;20.50;99.90;;;;;;5116789;28;20630;-73
2022/05/08 12:31:50;;;;;;;8.00;2.78;;;20.20;99.90;;;;;;5116194;28;20201;-73
2022/05/08 12:34:17;;;;;;;5.20;2.20;;;20.60;99.90;;;;;;5116416;28;20168;-74
2022/05/08 12:36:43;;;;;;;6.35;1.95;;;20.90;99.90;;;;;;5116555;28;20267;-74
2022/05/08 12:39:10;;;;;;;3.90;2.13;;;20.90;99.90;;;;;;5116331;28;20235;-74
2022/05/08 12:41:37;;;;;;;4.30;2.10;;;20.90;99.90;;;;;;5116470;28;20167;-74
2022/05/08 12:44:03;;;;;;;4.15;2.13;;;20.50;99.90;;;;;;5115819;28;20189;-76
2022/05/08 12:46:29;;;;;;;3.00;1.95;;;20.10;99.90;;;;;;5116237;28;20172;-75
2022/05/08 12:49:01;;;;;;;4.68;1.98;;;20.30;99.90;;;;;;5115974;28;20181;-75
2022/05/08 12:51:28;;;;;;;4.30;1.98;;;20.30;99.90;;;;;;5116588;28;20167;-74
2022/05/08 12:53:54;;;;;;;4.93;1.90;;;20.70;99.90;;;;;;5116238;28;20255;-74
2022/05/08 12:56:19;;;;;;;4.65;2.25;;;20.60;99.90;;;;;;5115700;28;20175;-75
2022/05/08 13:01:33;;;;;;;3.22;1.50;;;20.40;99.90;;;;;;5116726;28;20174;-72
2022/05/08 13:03:59;;;;;;;2.70;1.80;;;19.90;99.90;;;;;;5115809;28;20274;-73
2022/05/08 13:06:25;;;;;;;5.03;2.28;;;19.90;99.90;;;;;;5115859;28;20230;-73
2022/05/08 13:08:51;;;;;;;5.38;2.60;;;19.90;99.90;;;;;;5115944;28;20172;-73
2022/05/08 13:11:17;;;;;;;4.47;1.98;;;20.10;99.90;;;;;;5115758;28;20171;-74